DAL1716 KLAX-KSFO
Flight info
| Callsign | DAL1716 |
|---|---|
| Flight time | N/A |
| Altitude | 30000 |
| Route | SUMMR2 STOKD SERFR SERFR4 |
| Aircraft | B738/M-SDE2E3FGHIRWXY/LB1 |
Departure
| Time | 2026-04-26 16:47 |
|---|---|
| Airport | Los Angeles International Airport (KLAX) |
Arrival
| Time | N/A |
|---|---|
| Airport | San Francisco International Airport (KSFO) |
| Time | Latitude | Longitude | Altitude | Speed | Heading |
|---|---|---|---|---|---|
| 2026-04-26 16:23 | 33.94659 | -118.40334 | 92 ft | 0 kts | 263° |
| 2026-04-26 16:38 | 33.94660 | -118.40333 | 94 ft | 2 kts | 263° |
| 2026-04-26 16:39 | 33.94662 | -118.40302 | 90 ft | 4 kts | 263° |
| 2026-04-26 16:39 | 33.94665 | -118.40277 | 90 ft | 4 kts | 274° |
| 2026-04-26 16:39 | 33.94657 | -118.40251 | 91 ft | 4 kts | 329° |
| 2026-04-26 16:39 | 33.94652 | -118.40246 | 92 ft | 4 kts | 353° |
| 2026-04-26 16:40 | 33.94679 | -118.40250 | 92 ft | 4 kts | 353° |
| 2026-04-26 16:40 | 33.94706 | -118.40254 | 92 ft | 4 kts | 353° |
| 2026-04-26 16:40 | 33.94717 | -118.40255 | 94 ft | 0 kts | 353° |
| 2026-04-26 16:44 | 33.94717 | -118.40256 | 93 ft | 0 kts | 353° |
| 2026-04-26 16:44 | 33.94741 | -118.40259 | 92 ft | 6 kts | 353° |
| 2026-04-26 16:45 | 33.94797 | -118.40269 | 93 ft | 10 kts | 347° |
| 2026-04-26 16:45 | 33.94870 | -118.40285 | 93 ft | 12 kts | 15° |
| 2026-04-26 16:45 | 33.94904 | -118.40195 | 95 ft | 14 kts | 82° |
| 2026-04-26 16:45 | 33.94918 | -118.40061 | 92 ft | 19 kts | 83° |
| 2026-04-26 16:46 | 33.94965 | -118.39915 | 92 ft | 20 kts | 20° |
| 2026-04-26 16:46 | 33.95043 | -118.39995 | 94 ft | 10 kts | 261° |
| 2026-04-26 16:46 | 33.95043 | -118.39998 | 94 ft | 0 kts | 261° |
| 2026-04-26 16:46 | 33.95037 | -118.40041 | 93 ft | 15 kts | 261° |
| 2026-04-26 16:47 | 33.94994 | -118.40436 | 96 ft | 81 kts | 263° |
| 2026-04-26 16:47 | 33.94898 | -118.41362 | 98 ft | 139 kts | 263° |
| 2026-04-26 16:47 | 33.94766 | -118.42641 | 445 ft | 159 kts | 264° |
| 2026-04-26 16:47 | 33.94633 | -118.43956 | 1345 ft | 150 kts | 264° |
| 2026-04-26 16:48 | 33.94511 | -118.45221 | 2087 ft | 156 kts | 264° |
| 2026-04-26 16:48 | 33.94373 | -118.46646 | 2351 ft | 186 kts | 265° |
| 2026-04-26 16:48 | 33.94295 | -118.48296 | 2593 ft | 208 kts | 268° |
| 2026-04-26 16:48 | 33.94243 | -118.50112 | 2926 ft | 223 kts | 269° |
| 2026-04-26 16:49 | 33.94158 | -118.52037 | 3256 ft | 238 kts | 265° |
| 2026-04-26 16:49 | 33.94053 | -118.53379 | 3540 ft | 247 kts | 265° |
| 2026-04-26 16:49 | 33.93826 | -118.56117 | 4622 ft | 247 kts | 265° |
| 2026-04-26 16:49 | 33.93659 | -118.58179 | 5432 ft | 249 kts | 266° |
| 2026-04-26 16:50 | 33.93493 | -118.60263 | 6198 ft | 251 kts | 266° |
| 2026-04-26 16:50 | 33.93326 | -118.62369 | 6949 ft | 254 kts | 266° |
| 2026-04-26 16:50 | 33.93158 | -118.64500 | 7770 ft | 256 kts | 266° |
| 2026-04-26 16:50 | 33.93045 | -118.65943 | 8318 ft | 257 kts | 266° |
| 2026-04-26 16:51 | 33.92878 | -118.68109 | 9043 ft | 261 kts | 266° |
| 2026-04-26 16:51 | 33.92711 | -118.70269 | 9782 ft | 263 kts | 266° |
| 2026-04-26 16:51 | 33.92539 | -118.72482 | 10350 ft | 272 kts | 266° |
| 2026-04-26 16:51 | 33.92356 | -118.74846 | 10510 ft | 294 kts | 266° |
| 2026-04-26 16:52 | 33.92159 | -118.77381 | 10676 ft | 315 kts | 266° |
| 2026-04-26 16:52 | 33.92018 | -118.79184 | 10866 ft | 325 kts | 266° |
| 2026-04-26 16:52 | 33.91733 | -118.82816 | 11636 ft | 331 kts | 266° |
| 2026-04-26 16:52 | 33.91658 | -118.85601 | 12307 ft | 333 kts | 273° |